Hlavní strana
METAR-TAF:

METAR-TAF

Letiště :

Piacenza, Itálie

zeměpisná šířka: 44-55N, zeměpisná délka: 009-44E, výška: 134 m

Aktuální stav počasí

Zpráva byla vytvořena před 1 hodinou a 7 minutami, v 13:55 UTC
Jihovýchodní vítr 12 kt
Teplota 13°C
Vlhkost vzduchu 30%
Tlak 1022 hPa
Viditelnost 10 km a více
Polojasno ve výšce 4000 ft

METAR: LIMS 191355Z 13012KT 9999 SCT040 13/M04 Q1022 RMK SCT VIS MIN 9999 WIND THR30 11011KT BLU

Čas: 16:02 (15:02 UTC)


TAF: chybějící

Stav a předpovědi počasí z více než 4 000 letišť (zprávy METAR a TAF).

Červené a žluté tečky na mapě představují dostupné meteorologické stanice.

Když kurzor umístíte na tečku, zobrazí se název stanice.

Pak kliknutím zobrazíte stav a předpověď počasí.

Chcete-li změnit mapu, kliknutím na zelené tlačítko se znaménkem +mapu přiblížíte, kliknutím na zelené tlačítko se znaménkem – mapu oddálíte a kliknutím na zelené šipky přejdete na sousední mapy.


METAR-TAF: